Aeroporto :
LOGIN :

Iscrizione | Disclaimer

   EN    FR    IT 

 










Sommario :    VFR   VFR Marginale   IFR   IFR Intensivo   IFR Molto Intensivo
Visibilità : 
Base nubi : 
>= 8 km
>= 3000ft
5 / 8 km
1000 / 3000 ft
1500m / 5 km
500 / 1000 ft
800 / 1500m
200 / 500 ft
< 800m
< 200 ft
Simboli :   Temporali  Nebbia  Neve Forte  Precipitazioni Forti  Vento > 20 kt
SIGMETs :   Varie  Temporali  Ghiacco  Turbolenza  Onda orograficha  Ceneri Vulcaniche






- Altitudine del aeroporto : 427 ft
- Codice IATA : KBP


UKBB - Boryspil'

ULTIMO METAR :
  • 040800Z 33005MPS CAVOK 11/M04 Q1021 R36R/CLRD// NOSIG

METARs OBSOLETI :
  • 040730Z 33004MPS 300V010 CAVOK 10/M04 Q1021 R36R/CLRD// NOSIG
  • 040700Z 35005MPS CAVOK 09/M03 Q1021 R18L/CLRD// NOSIG
  • 040630Z 34005MPS CAVOK 09/M03 Q1020 R18L/CLRD// NOSIG
  • 040600Z 33004MPS 9000 NSC 08/M03 Q1019 R18L/CLRD// NOSIG
  • 040530Z 33004MPS 9000 NSC 07/M03 Q1019 R18L/CLRD// NOSIG

TAF TAF UKBB
Valido dal 04 a 06 ore il 05 a 06 ore UTC


040500Z 0406/0506 30005G10MPS 9999 SCT030 TX11/0412Z TNM05/0504Z
TEMPO 0406/0408 3000 FU
TEMPO 0408/0416 32008G13MPS
BECMG 0418/0420 30003G08MPS
TEMPO 0420/0505 2000 BR SCT007



MetMap, La meteo Aeronautica in un colpo d'occhio ! - Copyright ORBIFLY Dicembre 2007 - Disclaimer

ORBIFLY MET'MAP TEAM :

Programmazione e sviluppo : Alexandra Zaïnal
Concezione : Baudouin d'Aumeries
Aiuto per la programmazione : Marc-Olivier Méhu
Supporto tecnico e logistico : Manuel Goepfert
Aiuto per la traduzione : Arnaldo La Scala

Contatto : metmap@orbifly.com




FONTI E CREDITI :

   NOAA